createdAt,value
2023-04-15T00:01:08.255Z,98794.66
2023-04-15T00:03:36.475Z,98783.47
2023-04-15T00:06:04.515Z,98798.16
2023-04-15T00:08:31.872Z,98788.84
2023-04-15T00:11:03.127Z,98780.34
2023-04-15T00:13:30.623Z,98782.66
2023-04-15T00:15:58.330Z,98787.00
2023-04-15T00:18:25.769Z,98788.84
2023-04-15T00:20:53.634Z,98792.16
2023-04-15T00:23:21.061Z,98798.78
2023-04-15T00:25:48.769Z,98796.31
2023-04-15T00:28:16.024Z,98801.69
2023-04-15T00:30:44.165Z,98806.00
2023-04-15T00:33:11.487Z,98802.69
2023-04-15T00:35:39.682Z,98807.44
2023-04-15T00:38:08.442Z,98807.47
2023-04-15T00:40:36.156Z,98795.88
2023-04-15T00:43:04.393Z,98814.50
2023-04-15T00:45:32.217Z,98808.50
2023-04-15T00:48:00.620Z,98812.81
2023-04-15T00:50:28.222Z,98809.53
2023-04-15T00:52:56.248Z,98811.56
2023-04-15T00:55:26.341Z,98812.59
2023-04-15T00:57:53.675Z,98807.66
2023-04-15T01:00:23.049Z,98812.03
2023-04-15T01:02:51.087Z,98810.16
2023-04-15T01:05:19.754Z,98809.94
2023-04-15T01:07:48.374Z,98810.78
2023-04-15T01:10:16.093Z,98815.28
2023-04-15T01:12:44.728Z,98813.84
2023-04-15T01:15:12.426Z,98818.63
2023-04-15T01:17:40.173Z,98828.56
2023-04-15T01:20:11.763Z,98814.06
2023-04-15T01:22:39.636Z,98811.59
2023-04-15T01:25:19.858Z,98828.16
2023-04-15T01:27:47.802Z,98810.97
2023-04-15T01:30:17.143Z,98816.31
2023-04-15T01:32:44.554Z,98804.53
2023-04-15T01:35:12.533Z,98815.47
2023-04-15T01:37:39.795Z,98823.75
2023-04-15T01:40:10.218Z,98831.00
2023-04-15T01:42:38.508Z,98836.19
2023-04-15T01:45:07.328Z,98826.91
2023-04-15T01:47:34.703Z,98823.38
2023-04-15T01:50:02.865Z,98827.13
2023-04-15T01:52:30.581Z,98836.44
2023-04-15T01:54:58.428Z,98838.28
2023-04-15T01:57:25.653Z,98839.31
2023-04-15T01:59:53.234Z,98845.53
2023-04-15T02:02:22.150Z,98839.53
2023-04-15T02:04:50.538Z,98844.91
2023-04-15T02:07:19.797Z,98841.63
2023-04-15T02:09:47.812Z,98838.50
2023-04-15T02:12:15.112Z,98840.16
2023-04-15T02:14:42.690Z,98824.41
2023-04-15T02:17:10.046Z,98828.34
2023-04-15T02:19:38.360Z,98830.03
2023-04-15T02:22:07.424Z,98841.44
2023-04-15T02:24:35.974Z,98841.41
2023-04-15T02:27:03.738Z,98823.19
2023-04-15T02:29:33.260Z,98832.69
2023-04-15T02:32:02.628Z,98830.84
2023-04-15T02:34:31.652Z,98820.91
2023-04-15T02:36:59.834Z,98827.78
2023-04-15T02:39:27.531Z,98817.78
2023-04-15T02:41:56.941Z,98815.09
2023-04-15T02:44:25.242Z,98819.47
2023-04-15T02:46:58.439Z,98825.88
2023-04-15T02:49:26.535Z,98822.78
2023-04-15T02:51:54.058Z,98819.03
2023-04-15T02:54:26.078Z,98822.34
2023-04-15T02:56:55.483Z,98814.50
2023-04-15T02:59:23.692Z,98809.50
2023-04-15T03:01:51.291Z,98824.84
2023-04-15T03:04:19.181Z,98814.28
2023-04-15T03:06:47.158Z,98818.66
2023-04-15T03:09:15.424Z,98833.53
2023-04-15T03:11:43.560Z,98829.78
2023-04-15T03:14:11.407Z,98812.41
2023-04-15T03:16:43.626Z,98841.41
2023-04-15T03:19:12.935Z,98842.00
2023-04-15T03:21:43.125Z,98833.09
2023-04-15T03:28:44.374Z,98844.66
2023-04-15T03:31:16.443Z,98854.63
2023-04-15T03:33:44.214Z,98856.28
2023-04-15T03:36:11.668Z,98837.03
2023-04-15T03:38:39.240Z,98856.88
2023-04-15T03:41:08.233Z,98846.34
2023-04-15T03:43:36.146Z,98860.41
2023-04-15T03:46:05.852Z,98867.66
2023-04-15T03:48:34.616Z,98871.97
2023-04-15T03:51:02.360Z,98875.72
2023-04-15T03:53:31.655Z,98880.69
2023-04-15T03:55:59.014Z,98881.09
2023-04-15T03:58:26.917Z,98879.03
2023-04-15T04:00:55.627Z,98889.16
2023-04-15T04:03:24.109Z,98896.41
2023-04-15T04:05:52.694Z,98900.13
2023-04-15T04:08:22.554Z,98910.06
2023-04-15T04:10:49.848Z,98904.69
2023-04-15T04:13:18.757Z,98913.81
2023-04-15T04:15:46.322Z,98908.22
2023-04-15T04:18:13.890Z,98910.69
2023-04-15T04:20:41.985Z,98916.28
2023-04-15T04:23:10.405Z,98907.63
2023-04-15T04:25:37.847Z,98922.91
2023-04-15T04:28:05.481Z,98908.84
2023-04-15T04:30:33.146Z,98917.97
2023-04-15T04:33:01.032Z,98927.53
2023-04-15T04:35:30.624Z,98919.66
2023-04-15T04:37:58.278Z,98917.16
2023-04-15T04:40:28.190Z,98933.31
2023-04-15T04:42:56.859Z,98922.56
2023-04-15T04:45:51.804Z,98938.50
2023-04-15T04:48:32.068Z,98925.03
2023-04-15T04:51:03.332Z,98933.75
2023-04-15T04:53:57.421Z,98934.94
2023-04-15T04:56:26.802Z,98924.16
2023-04-15T04:58:54.422Z,98933.63
2023-04-15T05:01:21.817Z,98932.63
2023-04-15T05:03:49.724Z,98945.25
2023-04-15T05:06:17.057Z,98936.50
2023-04-15T05:08:48.206Z,98941.84
2023-04-15T05:11:16.416Z,98933.97
2023-04-15T05:13:44.067Z,98948.63
2023-04-15T05:16:11.323Z,98945.53
2023-04-15T05:18:41.611Z,98949.00
2023-04-15T05:21:08.952Z,98943.81
2023-04-15T05:23:36.840Z,98928.88
2023-04-15T05:26:04.241Z,98934.38
2023-04-15T05:28:32.729Z,98948.97
2023-04-15T05:31:00.325Z,98941.94
2023-04-15T05:33:28.082Z,98955.88
2023-04-15T05:35:55.729Z,98953.44
2023-04-15T05:38:23.491Z,98941.06
2023-04-15T05:40:51.041Z,98938.28
2023-04-15T05:43:18.803Z,98947.09
2023-04-15T05:45:46.287Z,98954.22
2023-04-15T05:48:14.019Z,98940.81
2023-04-15T05:50:44.521Z,98946.03
2023-04-15T05:53:12.311Z,98953.22
2023-04-15T05:55:39.575Z,98932.50
2023-04-15T05:58:08.203Z,98948.66
2023-04-15T06:00:36.650Z,98941.13
2023-04-15T06:03:04.471Z,98949.13
2023-04-15T06:05:31.686Z,98932.59
2023-04-15T06:07:59.212Z,98936.84
2023-04-15T06:10:26.510Z,98928.63
2023-04-15T06:12:54.757Z,98939.00
2023-04-15T06:15:23.188Z,98931.69
2023-04-15T06:17:51.969Z,98934.81
2023-04-15T06:20:19.677Z,98946.84
2023-04-15T06:22:47.421Z,98944.78
2023-04-15T06:25:14.863Z,98944.97
2023-04-15T06:27:42.443Z,98949.47
2023-04-15T06:30:10.329Z,98944.44
2023-04-15T06:32:38.060Z,98944.25
2023-04-15T06:35:05.707Z,98948.00
2023-04-15T06:37:33.242Z,98937.06
2023-04-15T06:40:00.614Z,98941.94
2023-04-15T06:42:28.269Z,98926.97
2023-04-15T06:44:55.873Z,98934.84
2023-04-15T06:47:23.494Z,98926.28
2023-04-15T06:49:51.157Z,98949.31
2023-04-15T06:52:18.874Z,98918.66
2023-04-15T06:54:46.122Z,98918.81
2023-04-15T06:57:15.047Z,98931.75
2023-04-15T06:59:43.194Z,98928.78
2023-04-15T07:02:14.106Z,98922.28
2023-04-15T07:04:42.037Z,98922.41
2023-04-15T07:07:12.874Z,98928.81
2023-04-15T07:09:40.167Z,98934.59
2023-04-15T07:12:07.833Z,98934.50
2023-04-15T07:14:35.141Z,98939.16
2023-04-15T07:17:02.904Z,98930.66
2023-04-15T07:19:30.228Z,98949.09
2023-04-15T07:21:57.855Z,98951.72
2023-04-15T07:24:26.942Z,98947.53
2023-04-15T07:26:59.434Z,98957.72
2023-04-15T07:29:28.239Z,98953.78
2023-04-15T07:31:57.388Z,98955.00
2023-04-15T07:34:24.737Z,98953.56
2023-04-15T07:36:52.802Z,98948.81
2023-04-15T07:39:21.239Z,98958.31
2023-04-15T07:41:50.837Z,98955.41
2023-04-15T07:44:19.225Z,98943.44
2023-04-15T07:46:46.841Z,98952.63
2023-04-15T07:49:14.630Z,98954.09
2023-04-15T07:51:44.559Z,98955.69
2023-04-15T07:54:11.895Z,98953.47
2023-04-15T07:56:39.478Z,98951.66
2023-04-15T07:59:07.185Z,98963.41
2023-04-15T08:01:36.965Z,98948.97
2023-04-15T08:04:04.496Z,98955.53
2023-04-15T08:06:34.141Z,98952.13
2023-04-15T08:09:05.662Z,98946.03
2023-04-15T08:11:35.096Z,98954.25
2023-04-15T08:14:02.558Z,98962.88
2023-04-15T08:16:30.241Z,98959.84
2023-04-15T08:18:58.033Z,98951.06
2023-04-15T08:21:26.044Z,98945.81
2023-04-15T08:23:54.684Z,98940.09
2023-04-15T08:26:22.980Z,98963.75
2023-04-15T08:28:50.443Z,98949.19
2023-04-15T08:31:19.482Z,98965.47
2023-04-15T08:33:49.550Z,98978.78
2023-04-15T08:36:17.675Z,98959.69
2023-04-15T08:38:47.838Z,98968.25
2023-04-15T08:41:23.672Z,98951.75
2023-04-15T08:43:58.513Z,98969.34
2023-04-15T08:46:28.213Z,98963.78
2023-04-15T08:48:58.101Z,98960.91
2023-04-15T08:51:26.726Z,98961.94
2023-04-15T08:53:57.483Z,98962.72
2023-04-15T08:56:29.608Z,98961.69
2023-04-15T08:58:58.057Z,98972.25
2023-04-15T09:01:26.764Z,98983.31
2023-04-15T09:03:57.346Z,98971.28
2023-04-15T09:06:25.851Z,98978.03
2023-04-15T09:08:53.254Z,98975.66
2023-04-15T09:11:22.507Z,98974.78
2023-04-15T09:13:50.088Z,98996.31
2023-04-15T09:16:17.829Z,98987.19
2023-04-15T09:18:45.152Z,98984.22
2023-04-15T09:21:15.764Z,98998.47
2023-04-15T09:24:01.565Z,98993.09
2023-04-15T09:26:37.330Z,98979.78
2023-04-15T09:29:07.087Z,98979.41
2023-04-15T09:31:35.232Z,98990.94
2023-04-15T09:34:04.805Z,98986.66
2023-04-15T09:36:57.067Z,98992.09
2023-04-15T09:39:24.473Z,98982.25
2023-04-15T09:42:07.031Z,98982.72
2023-04-15T09:44:35.896Z,98984.84
2023-04-15T09:47:04.028Z,98980.34
2023-04-15T09:49:31.349Z,98983.91
2023-04-15T09:52:06.115Z,98974.59
2023-04-15T09:54:39.172Z,98984.63
2023-04-15T09:57:08.570Z,98975.94
2023-04-15T09:59:36.442Z,98964.44
2023-04-15T10:02:10.832Z,98957.28
2023-04-15T10:04:41.685Z,98971.66
2023-04-15T10:07:10.031Z,98967.97
2023-04-15T10:09:39.142Z,98980.97
2023-04-15T10:12:09.217Z,98997.00
2023-04-15T10:14:38.872Z,98993.13
2023-04-15T10:17:11.641Z,98996.84
2023-04-15T10:19:39.227Z,98990.41
2023-04-15T10:22:08.186Z,98988.69
2023-04-15T10:24:35.579Z,98987.97
2023-04-15T10:27:07.568Z,98973.13
2023-04-15T10:29:35.027Z,98969.41
2023-04-15T10:32:03.845Z,98973.75
2023-04-15T10:34:32.438Z,98970.44
2023-04-15T10:37:06.893Z,98971.53
2023-04-15T10:39:37.685Z,98970.84
2023-04-15T10:42:11.067Z,98968.63
2023-04-15T10:44:58.848Z,98978.19
2023-04-15T10:47:26.584Z,98973.66
2023-04-15T10:50:02.619Z,98972.16
2023-04-15T10:52:31.062Z,98981.38
2023-04-15T10:55:23.286Z,98978.38
2023-04-15T10:57:58.983Z,98980.34
2023-04-15T11:00:29.923Z,98971.72
2023-04-15T11:03:11.036Z,98977.66
2023-04-15T11:05:54.640Z,98964.69
2023-04-15T11:08:54.168Z,98955.47
2023-04-15T11:11:23.005Z,98960.72
2023-04-15T11:13:52.755Z,98958.31
2023-04-15T11:16:20.432Z,98958.56
2023-04-15T11:18:57.018Z,98954.47
2023-04-15T11:21:28.322Z,98954.38
2023-04-15T11:23:56.968Z,98972.81
2023-04-15T11:26:28.394Z,98964.19
2023-04-15T11:29:26.290Z,98974.06
2023-04-15T11:32:05.174Z,98962.41
2023-04-15T11:34:34.539Z,98953.22
2023-04-15T11:37:06.873Z,98969.63
2023-04-15T11:39:35.154Z,98963.78
2023-04-15T11:42:02.630Z,98953.69
2023-04-15T11:44:32.775Z,98949.53
2023-04-15T11:47:00.857Z,98935.31
2023-04-15T11:49:31.354Z,98936.00
2023-04-15T11:52:01.427Z,98943.16
2023-04-15T11:54:31.805Z,98968.31
2023-04-15T11:57:02.035Z,98963.59
2023-04-15T11:59:45.391Z,98957.84
2023-04-15T12:02:15.106Z,98943.03
2023-04-15T12:04:43.201Z,98958.41
2023-04-15T12:07:12.804Z,98965.53
2023-04-15T12:09:43.228Z,98946.28
2023-04-15T12:12:13.579Z,98946.34
2023-04-15T12:14:45.301Z,98922.75
2023-04-15T12:17:13.386Z,98946.16
2023-04-15T12:19:43.360Z,98940.72
2023-04-15T12:22:15.963Z,98937.53
2023-04-15T12:24:47.123Z,98957.22
2023-04-15T12:27:16.434Z,98944.59
2023-04-15T12:29:44.082Z,98942.06
2023-04-15T12:32:21.154Z,98941.31
2023-04-15T12:34:53.340Z,98950.66
2023-04-15T12:37:22.127Z,98926.63
2023-04-15T12:39:50.665Z,98946.88
2023-04-15T12:42:18.564Z,98941.66
2023-04-15T12:44:47.088Z,98937.28
2023-04-15T12:47:14.583Z,98950.06
2023-04-15T12:49:42.412Z,98943.81
2023-04-15T12:52:09.784Z,98924.09
2023-04-15T12:54:37.422Z,98948.09
2023-04-15T12:57:07.217Z,98944.69
2023-04-15T12:59:35.865Z,98944.97
2023-04-15T13:02:04.281Z,98949.66
2023-04-15T13:04:33.817Z,98954.06
2023-04-15T13:07:02.353Z,98938.06
2023-04-15T13:09:30.163Z,98941.22
2023-04-15T13:11:57.796Z,98939.44
2023-04-15T13:14:25.398Z,98953.78
2023-04-15T13:16:53.931Z,98948.41
2023-04-15T13:19:21.656Z,98940.56
2023-04-15T13:21:49.269Z,98942.44
2023-04-15T13:24:18.426Z,98940.16
2023-04-15T13:26:45.759Z,98932.34
2023-04-15T13:29:14.241Z,98939.88
2023-04-15T13:31:41.573Z,98919.63
2023-04-15T13:34:09.139Z,98934.94
2023-04-15T13:36:36.425Z,98934.94
2023-04-15T13:39:05.575Z,98922.22
2023-04-15T13:41:35.127Z,98937.25
2023-04-15T13:44:03.481Z,98927.50
2023-04-15T13:46:30.876Z,98932.88
2023-04-15T13:48:58.503Z,98931.28
2023-04-15T13:51:27.113Z,98949.16
2023-04-15T13:53:54.749Z,98936.16
2023-04-15T13:56:22.303Z,98910.97
2023-04-15T13:58:50.061Z,98899.53
2023-04-15T14:01:43.864Z,98931.00
2023-04-15T14:04:14.039Z,98918.94
2023-04-15T14:06:46.842Z,98933.69
2023-04-15T14:09:16.387Z,98930.38
2023-04-15T14:11:43.700Z,98934.91
2023-04-15T14:14:11.277Z,98926.19
2023-04-15T14:16:38.599Z,98929.25
2023-04-15T14:19:06.696Z,98927.78
2023-04-15T14:21:35.119Z,98918.69
2023-04-15T14:24:05.044Z,98923.63
2023-04-15T14:26:32.380Z,98921.59
2023-04-15T14:29:00.714Z,98919.91
2023-04-15T14:31:28.243Z,98902.84
2023-04-15T14:33:56.112Z,98917.06
2023-04-15T14:36:23.438Z,98913.78
2023-04-15T14:38:51.141Z,98917.69
2023-04-15T14:41:18.440Z,98916.78
2023-04-15T14:43:48.059Z,98931.72
2023-04-15T14:46:15.656Z,98926.56
2023-04-15T14:48:43.454Z,98904.00
2023-04-15T14:51:10.868Z,98923.47
2023-04-15T14:53:38.500Z,98911.50
2023-04-15T14:56:07.365Z,98926.97
2023-04-15T14:58:36.869Z,98917.47
2023-04-15T15:01:04.712Z,98923.84
2023-04-15T15:03:34.294Z,98910.25
2023-04-15T15:06:01.665Z,98926.38
2023-04-15T15:08:30.044Z,98932.31
2023-04-15T15:10:58.074Z,98932.94
2023-04-15T15:13:25.826Z,98924.09
2023-04-15T15:15:54.433Z,98927.25
2023-04-15T15:18:22.116Z,98924.34
2023-04-15T15:20:49.719Z,98934.53
2023-04-15T15:23:36.009Z,98923.22
2023-04-15T15:26:03.355Z,98935.63
2023-04-15T15:28:31.174Z,98929.19
2023-04-15T15:31:00.567Z,98908.66
2023-04-15T15:33:30.110Z,98931.38
2023-04-15T15:35:58.355Z,98916.31
2023-04-15T15:38:26.462Z,98925.34
2023-04-15T15:40:56.000Z,98940.94
2023-04-15T15:43:23.929Z,98933.53
2023-04-15T15:45:55.535Z,98936.25
2023-04-15T15:48:26.216Z,98921.50
2023-04-15T15:50:53.714Z,98938.97
2023-04-15T15:53:24.329Z,98942.09
2023-04-15T15:55:53.716Z,98948.84
2023-04-15T15:58:21.818Z,98961.47
2023-04-15T16:00:49.390Z,98967.88
2023-04-15T16:03:18.636Z,98967.03
2023-04-15T16:05:47.993Z,98989.72
2023-04-15T16:08:16.260Z,98971.13
2023-04-15T16:10:43.584Z,98974.59
2023-04-15T16:13:11.455Z,98973.44
2023-04-15T16:15:38.773Z,98970.53
2023-04-15T16:18:06.394Z,99008.44
2023-04-15T16:20:58.869Z,99002.22
2023-04-15T16:23:29.378Z,98990.91
2023-04-15T16:25:57.734Z,98985.72
2023-04-15T16:28:27.104Z,98997.72
2023-04-15T16:30:57.243Z,98999.56
2023-04-15T16:33:24.927Z,98983.66
2023-04-15T16:35:53.126Z,98990.66
2023-04-15T16:38:21.797Z,98963.47
2023-04-15T16:40:49.174Z,98993.88
2023-04-15T16:43:17.925Z,98997.25
2023-04-15T16:45:51.002Z,99004.59
2023-04-15T16:48:20.887Z,98982.84
2023-04-15T16:50:49.566Z,98993.97
2023-04-15T16:53:17.172Z,98993.72
2023-04-15T16:55:44.433Z,99006.34
2023-04-15T16:58:12.052Z,99002.78
2023-04-15T17:00:40.475Z,99015.72
2023-04-15T17:03:12.520Z,99008.63
2023-04-15T17:05:40.163Z,99009.91
2023-04-15T17:08:08.643Z,99018.72
2023-04-15T17:10:36.664Z,99010.47
2023-04-15T17:13:04.439Z,99011.25
2023-04-15T17:15:31.737Z,99026.47
2023-04-15T17:18:00.688Z,99017.38
2023-04-15T17:20:30.278Z,99027.53
2023-04-15T17:23:00.544Z,99027.16
2023-04-15T17:25:28.092Z,99025.91
2023-04-15T17:27:55.798Z,99016.28
2023-04-15T17:30:23.724Z,99014.56
2023-04-15T17:32:52.963Z,99037.91
2023-04-15T17:35:28.020Z,99041.66
2023-04-15T17:37:58.527Z,99035.56
2023-04-15T17:40:26.091Z,99048.88
2023-04-15T17:42:54.923Z,99048.88
2023-04-15T17:45:23.120Z,99026.81
2023-04-15T17:47:51.088Z,99059.50
2023-04-15T17:50:18.522Z,99055.81
2023-04-15T17:52:48.472Z,99040.25
2023-04-15T17:55:16.094Z,99059.56
2023-04-15T17:57:46.521Z,99069.09
2023-04-15T18:00:16.986Z,99064.16
2023-04-15T18:02:45.389Z,99059.38
2023-04-15T18:05:15.375Z,99058.84
2023-04-15T18:07:43.672Z,99067.41
2023-04-15T18:10:11.832Z,99079.31
2023-04-15T18:12:39.640Z,99079.38
2023-04-15T18:15:09.685Z,99064.75
2023-04-15T18:17:37.402Z,99090.16
2023-04-15T18:20:10.896Z,99094.75
2023-04-15T18:22:43.546Z,99092.84
2023-04-15T18:25:14.388Z,99068.03
2023-04-15T18:27:43.009Z,99104.97
2023-04-15T18:30:13.759Z,99083.19
2023-04-15T18:32:41.876Z,99088.50
2023-04-15T18:35:10.484Z,99108.09
2023-04-15T18:37:38.445Z,99092.25
2023-04-15T18:40:16.495Z,99111.94
2023-04-15T18:42:53.254Z,99090.66
2023-04-15T18:45:20.952Z,99106.59
2023-04-15T18:47:48.912Z,99104.91
2023-04-15T18:50:17.586Z,99124.81
2023-04-15T18:52:45.237Z,99119.13
2023-04-15T18:55:15.350Z,99119.19
2023-04-15T18:57:50.028Z,99119.81
2023-04-15T19:00:23.194Z,99109.53
2023-04-15T19:02:53.049Z,99124.75
2023-04-15T19:05:20.616Z,99110.94
2023-04-15T19:07:50.553Z,99118.84
2023-04-15T19:10:17.948Z,99115.81
2023-04-15T19:12:45.747Z,99113.22
2023-04-15T19:15:13.046Z,99131.78
2023-04-15T19:17:40.921Z,99119.31
2023-04-15T19:20:20.363Z,99122.00
2023-04-15T19:23:16.694Z,99120.63
2023-04-15T19:25:45.979Z,99130.41
2023-04-15T19:28:15.583Z,99124.22
2023-04-15T19:30:44.090Z,99125.75
2023-04-15T19:33:11.401Z,99126.75
2023-04-15T19:35:41.137Z,99132.50
2023-04-15T19:38:08.482Z,99115.72
2023-04-15T19:40:38.360Z,99137.91
2023-04-15T19:43:06.738Z,99141.44
2023-04-15T19:45:34.797Z,99132.59
2023-04-15T19:48:02.250Z,99126.06
2023-04-15T19:50:30.111Z,99135.72
2023-04-15T19:52:58.550Z,99141.63
2023-04-15T19:55:26.374Z,99140.75
2023-04-15T19:57:54.365Z,99139.31
2023-04-15T20:00:26.252Z,99141.91
2023-04-15T20:02:58.713Z,99133.88
2023-04-15T20:05:29.831Z,99129.59
2023-04-15T20:08:00.424Z,99148.41
2023-04-15T20:10:28.416Z,99131.41
2023-04-15T20:12:57.173Z,99139.56
2023-04-15T20:15:26.519Z,99140.84
2023-04-15T20:17:54.692Z,99139.22
2023-04-15T20:20:24.758Z,99135.91
2023-04-15T20:22:53.287Z,99138.91
2023-04-15T20:25:22.154Z,99140.41
2023-04-15T20:27:49.494Z,99148.78
2023-04-15T20:30:20.073Z,99148.41
2023-04-15T20:32:47.489Z,99150.31
2023-04-15T20:35:15.128Z,99153.88
2023-04-15T20:37:45.280Z,99140.59
2023-04-15T20:40:18.464Z,99156.91
2023-04-15T20:42:48.094Z,99125.56
2023-04-15T20:45:23.565Z,99145.47
2023-04-15T20:47:51.591Z,99132.63
2023-04-15T20:50:20.606Z,99148.66
2023-04-15T20:52:49.575Z,99157.47
2023-04-15T20:55:17.213Z,99147.84
2023-04-15T20:57:49.932Z,99163.41
2023-04-15T21:00:20.407Z,99152.63
2023-04-15T21:02:49.314Z,99163.63
2023-04-15T21:05:20.396Z,99119.56
2023-04-15T21:07:47.662Z,99134.44
2023-04-15T21:10:15.557Z,99146.41
2023-04-15T21:12:42.911Z,99143.47
2023-04-15T21:15:11.795Z,99153.66
2023-04-15T21:17:39.859Z,99158.59
2023-04-15T21:20:12.338Z,99147.22
2023-04-15T21:22:41.333Z,99139.09
2023-04-15T21:25:09.442Z,99142.13
2023-04-15T21:27:36.703Z,99146.19
2023-04-15T21:30:04.649Z,99151.13
2023-04-15T21:32:34.687Z,99157.16
2023-04-15T21:35:02.751Z,99146.59
2023-04-15T21:37:30.052Z,99143.44
2023-04-15T21:39:57.625Z,99151.03
2023-04-15T21:42:32.879Z,99152.94
2023-04-15T21:45:01.900Z,99145.94
2023-04-15T21:48:06.113Z,99153.63
2023-04-15T21:50:24.989Z,99141.50
2023-04-15T21:52:56.569Z,99152.03
2023-04-15T21:55:27.443Z,99141.88
2023-04-15T21:57:57.021Z,99133.94
2023-04-15T22:00:24.946Z,99144.97
2023-04-15T22:02:56.585Z,99144.84
2023-04-15T22:05:25.553Z,99144.97
2023-04-15T22:07:54.141Z,99134.16
2023-04-15T22:10:21.937Z,99144.97
2023-04-15T22:12:51.187Z,99147.06
2023-04-15T22:15:18.750Z,99165.06
2023-04-15T22:17:47.112Z,99155.03
2023-04-15T22:20:19.188Z,99150.16
2023-04-15T22:22:46.625Z,99135.56
2023-04-15T22:25:16.276Z,99149.44
2023-04-15T22:27:44.243Z,99139.94
2023-04-15T22:30:13.409Z,99135.34
2023-04-15T22:32:40.900Z,99157.59
2023-04-15T22:35:09.001Z,99156.25
2023-04-15T22:37:36.289Z,99150.81
2023-04-15T22:40:29.270Z,99155.94
2023-04-15T22:43:00.759Z,99153.94
2023-04-15T22:45:28.411Z,99123.16
2023-04-15T22:47:55.813Z,99147.44
2023-04-15T22:50:23.624Z,99151.44
2023-04-15T22:52:51.348Z,99143.47
2023-04-15T22:55:19.207Z,99140.03
2023-04-15T22:57:46.613Z,99136.66
2023-04-15T23:00:16.560Z,99158.84
2023-04-15T23:02:44.312Z,99150.09
2023-04-15T23:05:13.603Z,99157.09
2023-04-15T23:07:41.628Z,99167.13
2023-04-15T23:10:10.550Z,99157.59
2023-04-15T23:12:39.028Z,99155.16
2023-04-15T23:15:07.309Z,99155.50
2023-04-15T23:17:35.068Z,99133.53
2023-04-15T23:20:10.072Z,99154.06
2023-04-15T23:22:38.650Z,99174.22
2023-04-15T23:25:06.618Z,99170.75
2023-04-15T23:27:33.926Z,99174.91
2023-04-15T23:30:01.675Z,99176.16
2023-04-15T23:32:29.373Z,99188.09
2023-04-15T23:35:04.258Z,99193.09
2023-04-15T23:37:32.827Z,99172.16
2023-04-15T23:40:29.527Z,99193.38
2023-04-15T23:43:09.392Z,99193.22
2023-04-15T23:45:41.559Z,99186.75
2023-04-15T23:48:11.939Z,99183.50
2023-04-15T23:50:41.299Z,99184.47
2023-04-15T23:53:10.816Z,99188.34
2023-04-15T23:55:44.860Z,99189.91
2023-04-15T23:58:12.203Z,99177.31
